sensor_id;sensor_type;location;lat;lon;timestamp;P1;durP1;ratioP1;P2;durP2;ratioP2
75914;SDS011;64593;51.050;13.780;2023-11-19T07:04:42;5.18;;;3.38;;
75914;SDS011;64593;51.050;13.780;2023-11-19T07:10:11;5.00;;;2.65;;
75914;SDS011;64593;51.050;13.780;2023-11-19T07:15:13;3.50;;;2.50;;
75914;SDS011;64593;51.050;13.780;2023-11-19T07:20:17;4.65;;;2.80;;
75914;SDS011;64593;51.050;13.780;2023-11-19T07:25:22;3.92;;;2.47;;
75914;SDS011;64593;51.050;13.780;2023-11-19T07:30:27;4.28;;;3.03;;
75914;SDS011;64593;51.050;13.780;2023-11-19T07:35:31;4.18;;;3.00;;
75914;SDS011;64593;51.050;13.780;2023-11-19T07:40:35;5.38;;;3.03;;
75914;SDS011;64593;51.050;13.780;2023-11-19T07:45:40;3.88;;;2.70;;
75914;SDS011;64593;51.050;13.780;2023-11-19T07:50:45;4.38;;;2.53;;
75914;SDS011;64593;51.050;13.780;2023-11-19T07:55:49;5.03;;;2.83;;
75914;SDS011;64593;51.050;13.780;2023-11-19T08:00:51;4.32;;;3.03;;
75914;SDS011;64593;51.050;13.780;2023-11-19T08:05:56;4.95;;;2.80;;
75914;SDS011;64593;51.050;13.780;2023-11-19T08:11:00;5.45;;;3.33;;
75914;SDS011;64593;51.050;13.780;2023-11-19T08:16:02;5.38;;;3.42;;
75914;SDS011;64593;51.050;13.780;2023-11-19T08:21:04;7.18;;;4.22;;
75914;SDS011;64593;51.050;13.780;2023-11-19T08:26:09;5.60;;;3.22;;
75914;SDS011;64593;51.050;13.780;2023-11-19T08:31:11;4.60;;;3.38;;
75914;SDS011;64593;51.050;13.780;2023-11-19T08:36:17;5.38;;;3.25;;
75914;SDS011;64593;51.050;13.780;2023-11-19T08:41:20;4.90;;;2.80;;
75914;SDS011;64593;51.050;13.780;2023-11-19T08:46:23;5.65;;;3.55;;
75914;SDS011;64593;51.050;13.780;2023-11-19T08:51:25;5.40;;;3.28;;
75914;SDS011;64593;51.050;13.780;2023-11-19T08:56:26;4.85;;;2.97;;
75914;SDS011;64593;51.050;13.780;2023-11-19T09:01:34;4.00;;;2.80;;
75914;SDS011;64593;51.050;13.780;2023-11-19T09:06:36;4.50;;;2.45;;
75914;SDS011;64593;51.050;13.780;2023-11-19T09:11:39;3.83;;;2.20;;
75914;SDS011;64593;51.050;13.780;2023-11-19T09:16:41;4.60;;;2.97;;
75914;SDS011;64593;51.050;13.780;2023-11-19T09:21:48;5.35;;;2.80;;
75914;SDS011;64593;51.050;13.780;2023-11-19T09:26:54;7.75;;;3.40;;
75914;SDS011;64593;51.050;13.780;2023-11-19T09:32:02;6.35;;;3.30;;
75914;SDS011;64593;51.050;13.780;2023-11-19T09:37:06;8.23;;;4.05;;
75914;SDS011;64593;51.050;13.780;2023-11-19T09:42:23;7.05;;;3.80;;
75914;SDS011;64593;51.050;13.780;2023-11-19T09:47:26;8.60;;;4.57;;
75914;SDS011;64593;51.050;13.780;2023-11-19T09:52:31;8.02;;;3.65;;
75914;SDS011;64593;51.050;13.780;2023-11-19T09:57:38;8.85;;;4.15;;
75914;SDS011;64593;51.050;13.780;2023-11-19T10:02:47;8.90;;;3.58;;
75914;SDS011;64593;51.050;13.780;2023-11-19T10:07:53;5.78;;;2.03;;
75914;SDS011;64593;51.050;13.780;2023-11-19T10:13:01;5.85;;;1.20;;
75914;SDS011;64593;51.050;13.780;2023-11-19T10:18:06;6.53;;;1.08;;
75914;SDS011;64593;51.050;13.780;2023-11-19T10:23:52;3.13;;;0.63;;
75914;SDS011;64593;51.050;13.780;2023-11-19T10:29:23;4.47;;;0.70;;
75914;SDS011;64593;51.050;13.780;2023-11-19T10:34:26;2.17;;;0.55;;
75914;SDS011;64593;51.050;13.780;2023-11-19T10:45:02;3.25;;;0.55;;
75914;SDS011;64593;51.050;13.780;2023-11-19T10:50:49;3.08;;;0.40;;
75914;SDS011;64593;51.050;13.780;2023-11-19T10:56:10;3.72;;;1.00;;
75914;SDS011;64593;51.050;13.780;2023-11-19T11:02:07;1.88;;;0.40;;
75914;SDS011;64593;51.050;13.780;2023-11-19T11:07:12;1.33;;;0.35;;
75914;SDS011;64593;51.050;13.780;2023-11-19T11:12:17;2.22;;;0.50;;
75914;SDS011;64593;51.050;13.780;2023-11-19T11:17:24;3.60;;;0.70;;
75914;SDS011;64593;51.050;13.780;2023-11-19T11:23:12;2.00;;;0.40;;
75914;SDS011;64593;51.050;13.780;2023-11-19T11:28:37;2.10;;;0.50;;
75914;SDS011;64593;51.050;13.780;2023-11-19T11:39:53;4.47;;;0.90;;
75914;SDS011;64593;51.050;13.780;2023-11-19T11:50:18;1.70;;;0.32;;
75914;SDS011;64593;51.050;13.780;2023-11-19T12:00:38;4.70;;;0.73;;
75914;SDS011;64593;51.050;13.780;2023-11-19T12:10:54;2.30;;;0.47;;
75914;SDS011;64593;51.050;13.780;2023-11-19T12:16:24;3.75;;;0.77;;
75914;SDS011;64593;51.050;13.780;2023-11-19T12:21:30;7.03;;;1.10;;
75914;SDS011;64593;51.050;13.780;2023-11-19T12:26:58;8.90;;;1.10;;
75914;SDS011;64593;51.050;13.780;2023-11-19T12:32:00;8.23;;;0.95;;
75914;SDS011;64593;51.050;13.780;2023-11-19T12:37:07;12.93;;;1.08;;
75914;SDS011;64593;51.050;13.780;2023-11-19T12:42:11;5.30;;;1.00;;
75914;SDS011;64593;51.050;13.780;2023-11-19T12:47:16;6.70;;;1.25;;
75914;SDS011;64593;51.050;13.780;2023-11-19T12:52:18;6.38;;;0.77;;
75914;SDS011;64593;51.050;13.780;2023-11-19T12:57:21;6.05;;;0.90;;
75914;SDS011;64593;51.050;13.780;2023-11-19T13:02:48;5.43;;;0.70;;
75914;SDS011;64593;51.050;13.780;2023-11-19T13:08:24;7.10;;;1.10;;
75914;SDS011;64593;51.050;13.780;2023-11-19T13:13:27;7.18;;;0.98;;
75914;SDS011;64593;51.050;13.780;2023-11-19T13:18:29;7.78;;;1.20;;
75914;SDS011;64593;51.050;13.780;2023-11-19T13:23:45;6.72;;;1.00;;
75914;SDS011;64593;51.050;13.780;2023-11-19T13:28:47;7.90;;;1.40;;
75914;SDS011;64593;51.050;13.780;2023-11-19T13:33:49;7.72;;;1.30;;
75914;SDS011;64593;51.050;13.780;2023-11-19T13:39:17;8.25;;;1.25;;
75914;SDS011;64593;51.050;13.780;2023-11-19T13:44:24;10.90;;;1.23;;
75914;SDS011;64593;51.050;13.780;2023-11-19T13:49:26;12.57;;;1.92;;
75914;SDS011;64593;51.050;13.780;2023-11-19T13:54:58;9.40;;;1.27;;
75914;SDS011;64593;51.050;13.780;2023-11-19T14:00:01;13.30;;;2.30;;
75914;SDS011;64593;51.050;13.780;2023-11-19T14:05:09;8.25;;;2.08;;
75914;SDS011;64593;51.050;13.780;2023-11-19T14:10:12;9.57;;;1.30;;
75914;SDS011;64593;51.050;13.780;2023-11-19T14:15:39;11.20;;;1.33;;
75914;SDS011;64593;51.050;13.780;2023-11-19T14:21:06;9.35;;;1.60;;
75914;SDS011;64593;51.050;13.780;2023-11-19T14:26:08;7.80;;;1.40;;
75914;SDS011;64593;51.050;13.780;2023-11-19T14:31:36;11.38;;;1.65;;
75914;SDS011;64593;51.050;13.780;2023-11-19T14:37:03;9.48;;;1.40;;
75914;SDS011;64593;51.050;13.780;2023-11-19T14:42:29;6.88;;;1.38;;
75914;SDS011;64593;51.050;13.780;2023-11-19T14:47:31;10.82;;;1.40;;
75914;SDS011;64593;51.050;13.780;2023-11-19T14:52:34;10.02;;;1.30;;
75914;SDS011;64593;51.050;13.780;2023-11-19T14:58:02;10.32;;;1.77;;
75914;SDS011;64593;51.050;13.780;2023-11-19T15:03:34;13.45;;;2.22;;
75914;SDS011;64593;51.050;13.780;2023-11-19T15:08:56;12.93;;;2.30;;
75914;SDS011;64593;51.050;13.780;2023-11-19T15:14:23;11.07;;;1.45;;
75914;SDS011;64593;51.050;13.780;2023-11-19T15:19:50;6.30;;;1.25;;
75914;SDS011;64593;51.050;13.780;2023-11-19T15:24:52;11.45;;;1.65;;
75914;SDS011;64593;51.050;13.780;2023-11-19T15:30:19;10.13;;;1.75;;
75914;SDS011;64593;51.050;13.780;2023-11-19T15:35:21;13.73;;;1.75;;
75914;SDS011;64593;51.050;13.780;2023-11-19T15:40:25;10.70;;;1.98;;
75914;SDS011;64593;51.050;13.780;2023-11-19T15:45:28;7.15;;;1.67;;
75914;SDS011;64593;51.050;13.780;2023-11-19T15:50:30;8.27;;;1.58;;
75914;SDS011;64593;51.050;13.780;2023-11-19T15:55:32;9.80;;;1.58;;
75914;SDS011;64593;51.050;13.780;2023-11-19T16:00:59;11.35;;;1.45;;
75914;SDS011;64593;51.050;13.780;2023-11-19T16:06:02;9.60;;;1.42;;
75914;SDS011;64593;51.050;13.780;2023-11-19T16:11:09;14.20;;;2.05;;
75914;SDS011;64593;51.050;13.780;2023-11-19T16:16:36;12.40;;;1.77;;
75914;SDS011;64593;51.050;13.780;2023-11-19T16:22:03;13.18;;;1.65;;
75914;SDS011;64593;51.050;13.780;2023-11-19T16:27:36;7.53;;;1.35;;
75914;SDS011;64593;51.050;13.780;2023-11-19T16:33:06;10.93;;;1.20;;
75914;SDS011;64593;51.050;13.780;2023-11-19T16:38:39;11.73;;;1.40;;
75914;SDS011;64593;51.050;13.780;2023-11-19T16:44:06;10.27;;;1.73;;
75914;SDS011;64593;51.050;13.780;2023-11-19T16:49:09;15.02;;;5.68;;
75914;SDS011;64593;51.050;13.780;2023-11-19T16:54:35;8.23;;;2.42;;
75914;SDS011;64593;51.050;13.780;2023-11-19T17:00:10;14.45;;;2.33;;
75914;SDS011;64593;51.050;13.780;2023-11-19T17:05:13;6.85;;;1.58;;
75914;SDS011;64593;51.050;13.780;2023-11-19T17:10:18;13.38;;;2.45;;
75914;SDS011;64593;51.050;13.780;2023-11-19T17:15:20;11.27;;;1.73;;
75914;SDS011;64593;51.050;13.780;2023-11-19T17:20:22;8.77;;;1.65;;
75914;SDS011;64593;51.050;13.780;2023-11-19T17:25:50;20.45;;;6.88;;
75914;SDS011;64593;51.050;13.780;2023-11-19T17:31:18;6.30;;;1.85;;
75914;SDS011;64593;51.050;13.780;2023-11-19T17:36:47;6.82;;;2.00;;
75914;SDS011;64593;51.050;13.780;2023-11-19T17:41:49;14.45;;;6.53;;
75914;SDS011;64593;51.050;13.780;2023-11-19T17:46:53;23.95;;;9.45;;
75914;SDS011;64593;51.050;13.780;2023-11-19T17:51:55;15.45;;;3.95;;
75914;SDS011;64593;51.050;13.780;2023-11-19T17:56:57;13.70;;;4.95;;
75914;SDS011;64593;51.050;13.780;2023-11-19T18:02:25;23.17;;;9.75;;
75914;SDS011;64593;51.050;13.780;2023-11-19T18:07:43;21.88;;;8.73;;
75914;SDS011;64593;51.050;13.780;2023-11-19T18:12:45;10.00;;;2.53;;
75914;SDS011;64593;51.050;13.780;2023-11-19T18:18:12;11.98;;;2.65;;
75914;SDS011;64593;51.050;13.780;2023-11-19T18:23:14;9.77;;;1.83;;
75914;SDS011;64593;51.050;13.780;2023-11-19T18:28:17;8.55;;;2.42;;
75914;SDS011;64593;51.050;13.780;2023-11-19T18:33:44;9.65;;;2.50;;
75914;SDS011;64593;51.050;13.780;2023-11-19T18:39:11;10.02;;;3.13;;
75914;SDS011;64593;51.050;13.780;2023-11-19T18:44:16;9.10;;;1.90;;
75914;SDS011;64593;51.050;13.780;2023-11-19T18:49:43;17.95;;;3.70;;
75914;SDS011;64593;51.050;13.780;2023-11-19T18:54:46;14.65;;;4.70;;
75914;SDS011;64593;51.050;13.780;2023-11-19T18:59:48;12.27;;;2.97;;
75914;SDS011;64593;51.050;13.780;2023-11-19T19:05:16;13.38;;;2.47;;
75914;SDS011;64593;51.050;13.780;2023-11-19T19:10:43;9.88;;;2.10;;
75914;SDS011;64593;51.050;13.780;2023-11-19T19:16:11;13.00;;;2.05;;
75914;SDS011;64593;51.050;13.780;2023-11-19T19:21:39;7.55;;;1.95;;
75914;SDS011;64593;51.050;13.780;2023-11-19T19:27:06;17.48;;;6.63;;
75914;SDS011;64593;51.050;13.780;2023-11-19T19:32:08;10.38;;;3.83;;
75914;SDS011;64593;51.050;13.780;2023-11-19T19:37:12;8.73;;;1.50;;
75914;SDS011;64593;51.050;13.780;2023-11-19T19:42:39;6.60;;;1.70;;
75914;SDS011;64593;51.050;13.780;2023-11-19T19:48:08;9.18;;;1.42;;
75914;SDS011;64593;51.050;13.780;2023-11-19T19:53:09;9.18;;;1.90;;
75914;SDS011;64593;51.050;13.780;2023-11-19T19:58:37;10.63;;;2.42;;
75914;SDS011;64593;51.050;13.780;2023-11-19T20:03:41;13.80;;;1.80;;
75914;SDS011;64593;51.050;13.780;2023-11-19T20:08:45;10.55;;;1.50;;
75914;SDS011;64593;51.050;13.780;2023-11-19T20:13:49;6.88;;;1.60;;
75914;SDS011;64593;51.050;13.780;2023-11-19T20:18:52;4.80;;;1.23;;
75914;SDS011;64593;51.050;13.780;2023-11-19T20:23:54;10.82;;;1.23;;
75914;SDS011;64593;51.050;13.780;2023-11-19T20:28:56;13.60;;;1.65;;
75914;SDS011;64593;51.050;13.780;2023-11-19T20:34:26;11.27;;;1.60;;
75914;SDS011;64593;51.050;13.780;2023-11-19T20:39:53;9.35;;;1.50;;
75914;SDS011;64593;51.050;13.780;2023-11-19T20:45:20;9.68;;;1.52;;
75914;SDS011;64593;51.050;13.780;2023-11-19T20:50:23;13.27;;;1.30;;
75914;SDS011;64593;51.050;13.780;2023-11-19T20:55:28;8.88;;;1.45;;
75914;SDS011;64593;51.050;13.780;2023-11-19T21:00:32;7.90;;;1.63;;
75914;SDS011;64593;51.050;13.780;2023-11-19T21:05:34;7.95;;;1.23;;
75914;SDS011;64593;51.050;13.780;2023-11-19T21:10:37;7.43;;;1.02;;
75914;SDS011;64593;51.050;13.780;2023-11-19T21:15:39;10.40;;;1.00;;
75914;SDS011;64593;51.050;13.780;2023-11-19T21:20:44;8.13;;;1.25;;
75914;SDS011;64593;51.050;13.780;2023-11-19T21:26:11;4.93;;;1.20;;
75914;SDS011;64593;51.050;13.780;2023-11-19T21:31:13;5.15;;;1.30;;
75914;SDS011;64593;51.050;13.780;2023-11-19T21:36:43;8.60;;;1.67;;
75914;SDS011;64593;51.050;13.780;2023-11-19T21:41:45;17.52;;;1.60;;
75914;SDS011;64593;51.050;13.780;2023-11-19T21:46:48;6.72;;;1.60;;
75914;SDS011;64593;51.050;13.780;2023-11-19T21:51:50;7.65;;;1.33;;
75914;SDS011;64593;51.050;13.780;2023-11-19T21:56:52;7.70;;;1.40;;
75914;SDS011;64593;51.050;13.780;2023-11-19T22:01:54;5.20;;;0.98;;
75914;SDS011;64593;51.050;13.780;2023-11-19T22:07:22;7.22;;;1.20;;
75914;SDS011;64593;51.050;13.780;2023-11-19T22:12:49;3.85;;;1.05;;
75914;SDS011;64593;51.050;13.780;2023-11-19T22:17:50;6.63;;;1.02;;
75914;SDS011;64593;51.050;13.780;2023-11-19T22:23:19;9.18;;;1.10;;
75914;SDS011;64593;51.050;13.780;2023-11-19T22:28:21;7.43;;;1.13;;
75914;SDS011;64593;51.050;13.780;2023-11-19T22:33:23;10.25;;;1.23;;
75914;SDS011;64593;51.050;13.780;2023-11-19T22:38:25;11.38;;;1.13;;
75914;SDS011;64593;51.050;13.780;2023-11-19T22:43:52;8.15;;;1.02;;
75914;SDS011;64593;51.050;13.780;2023-11-19T22:48:53;8.98;;;1.45;;
75914;SDS011;64593;51.050;13.780;2023-11-19T22:54:20;10.68;;;1.20;;
75914;SDS011;64593;51.050;13.780;2023-11-19T22:59:47;7.35;;;1.35;;
